Time;durP1;ratioP1;P1;durP2;ratioP2;P2;SDS_P1;SDS_P2;PMS_P1;PMS_P2;Temp;Humidity;BMP_temperature;BMP_pressure;BME280_temperature;BME280_humidity;BME280_pressure;Samples;Min_cycle;Max_cycle;Signal;HPM_P1;HPM_P2
2021/03/02 00:02:17;;;;;;;17.45;9.73;;;2.80;90.70;;;;;;4992170;28;20153;-79
2021/03/02 00:04:46;;;;;;;18.83;11.82;;;2.70;91.20;;;;;;5034332;28;20037;-80
2021/03/02 00:07:16;;;;;;;11.07;8.05;;;2.80;91.40;;;;;;5018044;28;20522;-79
2021/03/02 00:09:44;;;;;;;9.00;6.65;;;2.70;91.60;;;;;;5017293;28;20037;-79
2021/03/02 00:12:26;;;;;;;18.13;12.00;;;2.80;91.60;;;;;;5034732;28;20038;-80
2021/03/02 00:14:53;;;;;;;17.05;10.93;;;2.70;91.50;;;;;;5035241;28;20046;-80
2021/03/02 00:17:31;;;;;;;19.33;13.57;;;2.50;92.30;;;;;;5034576;28;20049;-80
2021/03/02 00:20:07;;;;;;;11.05;6.95;;;2.60;92.00;;;;;;5011427;28;20060;-79
2021/03/02 00:22:40;;;;;;;15.65;11.18;;;2.70;92.40;;;;;;5014737;28;20448;-80
2021/03/02 00:25:10;;;;;;;22.35;14.25;;;2.70;92.10;;;;;;5014932;28;20054;-80
2021/03/02 00:27:39;;;;;;;24.75;19.75;;;2.60;91.80;;;;;;5015011;28;20058;-79
2021/03/02 00:30:09;;;;;;;20.50;13.15;;;2.60;92.40;;;;;;5027992;28;20161;-80
2021/03/02 00:32:37;;;;;;;20.90;13.80;;;2.60;91.90;;;;;;5034053;28;20080;-80
2021/03/02 00:35:06;;;;;;;26.33;14.20;;;2.40;92.50;;;;;;5034790;28;20053;-80
2021/03/02 00:37:33;;;;;;;20.08;15.25;;;2.40;92.80;;;;;;5000150;28;20052;-80
2021/03/02 00:40:00;;;;;;;18.42;12.63;;;2.20;92.40;;;;;;5033858;28;20069;-80
2021/03/02 00:42:42;;;;;;;27.17;14.30;;;2.30;92.60;;;;;;5011379;28;20955;-80
2021/03/02 00:45:11;;;;;;;33.47;14.98;;;2.20;92.60;;;;;;5014160;28;20041;-80
2021/03/02 00:47:38;;;;;;;28.45;12.40;;;2.20;92.90;;;;;;4997163;28;20076;-80
2021/03/02 00:50:07;;;;;;;19.67;13.77;;;2.20;93.10;;;;;;4980138;28;20505;-84
2021/03/02 00:52:35;;;;;;;14.18;9.68;;;2.20;92.60;;;;;;4996649;28;20564;-79
2021/03/02 00:55:05;;;;;;;24.50;14.70;;;2.20;93.30;;;;;;4997254;28;20057;-80
2021/03/02 00:57:32;;;;;;;21.90;13.85;;;2.20;92.70;;;;;;5014106;28;20038;-80
2021/03/02 01:00:07;;;;;;;20.90;14.25;;;2.20;93.30;;;;;;5013724;28;20049;-80
2021/03/02 01:02:35;;;;;;;17.75;11.32;;;2.10;92.90;;;;;;5011402;28;20406;-79
2021/03/02 01:05:05;;;;;;;22.10;13.63;;;2.10;93.20;;;;;;5001311;28;20054;-80
2021/03/02 01:07:42;;;;;;;20.63;12.35;;;2.10;93.00;;;;;;5013954;28;20041;-80
2021/03/02 01:10:13;;;;;;;19.50;13.23;;;2.00;93.40;;;;;;4996825;28;20053;-79
2021/03/02 01:12:45;;;;;;;34.20;17.40;;;2.00;93.20;;;;;;4996167;28;20070;-84
2021/03/02 01:15:13;;;;;;;24.02;15.07;;;1.90;93.20;;;;;;4980824;28;20434;-84
2021/03/02 01:17:42;;;;;;;22.15;15.05;;;1.80;92.90;;;;;;5006006;28;20492;-84
2021/03/02 01:20:10;;;;;;;32.20;15.30;;;1.80;92.70;;;;;;5033512;28;20037;-83
2021/03/02 01:22:38;;;;;;;24.50;17.27;;;1.70;93.70;;;;;;5034385;28;20053;-84
2021/03/02 01:25:12;;;;;;;22.90;14.98;;;1.70;93.20;;;;;;5033040;28;20046;-80
2021/03/02 01:27:40;;;;;;;28.65;16.23;;;1.60;94.10;;;;;;5033905;28;20168;-80
2021/03/02 01:30:12;;;;;;;27.02;16.13;;;1.50;93.70;;;;;;5015191;28;20085;-79
2021/03/02 01:32:42;;;;;;;23.77;15.02;;;1.50;94.30;;;;;;5015412;28;20052;-80
2021/03/02 01:35:11;;;;;;;23.98;12.35;;;1.60;93.90;;;;;;5015927;28;20121;-80
2021/03/02 01:37:39;;;;;;;14.40;11.15;;;1.50;95.20;;;;;;4982613;28;20080;-84
2021/03/02 01:40:11;;;;;;;19.95;13.38;;;1.60;94.90;;;;;;4982018;28;20390;-84
2021/03/02 01:42:41;;;;;;;11.73;9.98;;;1.60;94.30;;;;;;4999461;28;20168;-84
2021/03/02 01:45:13;;;;;;;20.52;14.52;;;1.60;94.90;;;;;;4999189;28;20387;-84
2021/03/02 01:47:41;;;;;;;11.85;10.18;;;1.60;94.80;;;;;;5016028;28;20532;-84
2021/03/02 01:50:10;;;;;;;23.08;15.98;;;1.60;94.70;;;;;;5032790;28;20102;-85
2021/03/02 01:52:38;;;;;;;21.58;14.73;;;1.60;94.50;;;;;;4983137;28;20042;-85
2021/03/02 01:55:07;;;;;;;22.15;14.02;;;1.60;94.50;;;;;;5015889;28;20395;-84
2021/03/02 01:57:36;;;;;;;25.25;17.02;;;1.50;94.50;;;;;;5015272;28;20566;-85
2021/03/02 02:00:22;;;;;;;28.15;12.95;;;1.50;94.70;;;;;;5015100;28;20046;-85
2021/03/02 02:03:00;;;;;;;26.65;14.25;;;1.30;93.60;;;;;;4998952;28;20097;-85
2021/03/02 02:05:30;;;;;;;27.30;16.02;;;1.30;95.00;;;;;;4979296;28;20034;-85
2021/03/02 02:08:02;;;;;;;18.52;14.10;;;1.40;95.70;;;;;;4979564;28;20050;-84
2021/03/02 02:10:57;;;;;;;25.38;15.77;;;1.40;95.20;;;;;;4996799;28;20050;-85
2021/03/02 02:13:40;;;;;;;25.35;15.90;;;1.30;95.10;;;;;;4979002;28;20060;-85
2021/03/02 02:16:10;;;;;;;25.98;13.25;;;1.20;94.60;;;;;;4979105;28;20046;-84
2021/03/02 02:18:41;;;;;;;24.67;14.23;;;1.10;93.80;;;;;;5013319;28;20046;-85
2021/03/02 02:21:29;;;;;;;24.45;12.98;;;0.80;94.40;;;;;;5010423;28;20041;-85
2021/03/02 02:24:15;;;;;;;28.55;17.77;;;0.80;94.80;;;;;;4998581;28;20065;-84
2021/03/02 02:26:48;;;;;;;21.35;14.13;;;0.90;96.00;;;;;;5015571;28;20072;-85
2021/03/02 02:29:31;;;;;;;22.80;19.10;;;0.80;95.80;;;;;;5015086;28;20061;-85
2021/03/02 02:31:59;;;;;;;19.30;13.60;;;0.80;95.80;;;;;;5011435;28;20573;-85
2021/03/02 02:34:31;;;;;;;27.85;19.05;;;0.70;93.80;;;;;;4995671;28;20092;-85
2021/03/02 02:37:01;;;;;;;26.17;16.88;;;0.40;94.00;;;;;;4995136;28;20379;-85
2021/03/02 02:39:32;;;;;;;27.50;18.65;;;0.20;92.50;;;;;;4995878;28;20133;-85
2021/03/02 02:42:03;;;;;;;27.35;16.73;;;-0.10;93.60;;;;;;5010961;28;20069;-86
2021/03/02 02:44:30;;;;;;;29.55;15.13;;;-0.10;95.40;;;;;;4995117;28;20061;-85
2021/03/02 02:46:59;;;;;;;30.73;15.18;;;-0.20;95.50;;;;;;4979768;28;20054;-85
2021/03/02 02:49:27;;;;;;;23.77;16.08;;;-0.10;95.90;;;;;;5012487;28;20132;-85
2021/03/02 02:51:55;;;;;;;23.20;17.02;;;0.00;96.50;;;;;;4994575;28;20046;-85
2021/03/02 02:54:25;;;;;;;23.92;16.23;;;0.10;96.70;;;;;;4979564;28;20418;-84
2021/03/02 02:56:55;;;;;;;22.98;15.10;;;0.20;96.60;;;;;;4994813;28;20073;-85
2021/03/02 02:59:34;;;;;;;23.70;15.77;;;0.10;96.50;;;;;;5011993;28;20046;-85
2021/03/02 03:02:04;;;;;;;33.65;17.48;;;0.10;96.50;;;;;;4994108;28;20042;-85
2021/03/02 03:04:39;;;;;;;29.40;15.00;;;0.10;96.60;;;;;;4971460;28;20495;-85
2021/03/02 03:07:14;;;;;;;19.65;14.57;;;0.00;96.80;;;;;;4982806;28;20046;-84
2021/03/02 03:09:43;;;;;;;28.23;15.88;;;-0.10;97.10;;;;;;4982081;28;20072;-84
2021/03/02 03:12:14;;;;;;;26.95;18.63;;;0.00;97.60;;;;;;4997666;28;20041;-84
2021/03/02 03:14:50;;;;;;;29.88;18.02;;;0.10;97.90;;;;;;4999459;28;20056;-84
2021/03/02 03:17:19;;;;;;;22.67;14.32;;;0.00;97.60;;;;;;4998417;28;20041;-84
2021/03/02 03:19:47;;;;;;;24.23;17.70;;;-0.20;93.80;;;;;;4998210;28;20061;-84
2021/03/02 03:22:16;;;;;;;21.88;14.70;;;-0.50;95.10;;;;;;4982682;28;20056;-84
2021/03/02 03:24:44;;;;;;;26.10;15.30;;;-0.80;95.60;;;;;;4981967;28;20050;-84
2021/03/02 03:27:12;;;;;;;28.35;16.88;;;-0.80;96.00;;;;;;5014831;28;20450;-84
2021/03/02 03:29:50;;;;;;;26.45;14.90;;;-0.80;97.50;;;;;;5014131;28;20560;-84
2021/03/02 03:32:19;;;;;;;26.20;16.45;;;-0.50;98.60;;;;;;4997823;28;20672;-84
2021/03/02 03:34:47;;;;;;;31.60;17.83;;;-0.60;98.50;;;;;;5032342;28;20797;-84
2021/03/02 03:37:14;;;;;;;23.42;15.85;;;-0.80;96.10;;;;;;5031829;28;20448;-83
2021/03/02 03:39:41;;;;;;;25.92;15.35;;;-1.00;95.10;;;;;;5031013;28;20176;-83
2021/03/02 03:42:08;;;;;;;26.30;15.70;;;-1.30;96.10;;;;;;5014782;28;20478;-83
2021/03/02 03:44:35;;;;;;;24.33;15.10;;;-1.40;96.60;;;;;;5014024;28;20041;-83
2021/03/02 03:47:03;;;;;;;28.85;17.60;;;-1.40;97.10;;;;;;5032688;28;20049;-84
2021/03/02 03:49:31;;;;;;;29.10;20.08;;;-1.30;98.60;;;;;;5014131;28;20502;-83
2021/03/02 03:51:59;;;;;;;31.77;18.67;;;-1.20;98.50;;;;;;5014063;28;20041;-84
2021/03/02 03:54:30;;;;;;;25.85;15.77;;;-1.10;98.80;;;;;;4978803;28;20108;-83
2021/03/02 03:57:00;;;;;;;30.00;14.90;;;-1.00;99.00;;;;;;5010981;28;20070;-83
2021/03/02 03:59:28;;;;;;;30.58;17.30;;;-1.00;98.80;;;;;;4995298;28;20137;-83
2021/03/02 04:01:56;;;;;;;26.55;16.13;;;-0.90;98.80;;;;;;4985880;28;20053;-83
2021/03/02 04:04:25;;;;;;;25.48;17.83;;;-0.90;98.70;;;;;;4999589;28;20103;-83
2021/03/02 04:06:54;;;;;;;29.30;17.05;;;-0.90;98.60;;;;;;5017901;28;20402;-83
2021/03/02 04:09:23;;;;;;;23.73;14.73;;;-1.00;96.00;;;;;;4981507;28;20095;-83
2021/03/02 04:11:50;;;;;;;21.55;12.98;;;-1.30;96.40;;;;;;4981346;28;20046;-83
2021/03/02 04:14:19;;;;;;;26.05;17.25;;;-1.30;97.10;;;;;;4998243;28;20458;-83
2021/03/02 04:16:46;;;;;;;24.77;15.77;;;-1.30;98.00;;;;;;4981808;28;20046;-83
2021/03/02 04:19:13;;;;;;;25.45;15.35;;;-1.20;98.40;;;;;;4998131;28;20042;-83
2021/03/02 04:21:40;;;;;;;26.08;16.55;;;-1.10;98.50;;;;;;5015175;28;20058;-79
2021/03/02 04:24:07;;;;;;;23.52;16.25;;;-1.10;98.40;;;;;;5016837;28;20398;-83
2021/03/02 04:26:34;;;;;;;27.20;15.98;;;-1.10;96.90;;;;;;5016918;28;20050;-83
2021/03/02 04:29:01;;;;;;;31.65;17.08;;;-1.10;96.30;;;;;;5000161;28;20053;-84
2021/03/02 04:31:28;;;;;;;20.65;14.18;;;-1.30;96.70;;;;;;5001155;28;20063;-81
2021/03/02 04:33:57;;;;;;;24.55;18.38;;;-1.30;97.40;;;;;;5034258;28;20057;-81
2021/03/02 04:36:24;;;;;;;23.60;17.85;;;-1.40;97.80;;;;;;5016681;28;20042;-83
2021/03/02 04:38:51;;;;;;;19.98;12.75;;;-1.30;98.20;;;;;;5013485;28;20053;-80
2021/03/02 04:41:19;;;;;;;31.02;16.92;;;-1.20;98.80;;;;;;5011845;28;20049;-81
2021/03/02 04:43:52;;;;;;;28.80;16.35;;;-1.10;98.60;;;;;;5000792;28;20045;-80
2021/03/02 04:46:25;;;;;;;14.70;11.10;;;-1.10;98.60;;;;;;5010732;28;20052;-81
2021/03/02 04:48:55;;;;;;;24.70;14.48;;;-1.00;98.70;;;;;;5009790;28;20461;-80
2021/03/02 04:51:24;;;;;;;13.70;10.43;;;-1.10;97.80;;;;;;5002640;28;20046;-80
2021/03/02 04:53:53;;;;;;;25.30;13.80;;;-1.00;99.90;;;;;;4980693;28;20486;-80
2021/03/02 04:56:19;;;;;;;19.08;10.77;;;-0.60;99.90;;;;;;5014307;28;20084;-80
2021/03/02 04:58:53;;;;;;;16.70;11.40;;;-0.50;99.90;;;;;;4993218;28;20140;-80
2021/03/02 05:01:22;;;;;;;20.58;12.82;;;-0.40;99.40;;;;;;4995991;28;20129;-83
2021/03/02 05:03:49;;;;;;;19.00;13.13;;;-0.80;95.30;;;;;;4995421;28;20042;-83
2021/03/02 05:06:16;;;;;;;23.02;14.15;;;-1.20;96.50;;;;;;4981251;28;20136;-83
2021/03/02 05:08:45;;;;;;;18.67;11.43;;;-1.50;96.00;;;;;;4986151;28;20482;-83
2021/03/02 05:11:12;;;;;;;26.38;16.25;;;-1.60;96.60;;;;;;5017037;28;20049;-83
2021/03/02 05:13:41;;;;;;;27.98;16.48;;;-1.60;97.90;;;;;;4999325;28;20061;-81
2021/03/02 05:16:13;;;;;;;26.30;17.88;;;-1.50;99.40;;;;;;5000191;28;20072;-81
2021/03/02 05:18:41;;;;;;;26.60;15.60;;;-1.50;99.30;;;;;;5000462;28;20053;-81
2021/03/02 05:21:08;;;;;;;22.73;14.85;;;-1.30;99.70;;;;;;5015700;28;20049;-82
2021/03/02 05:23:36;;;;;;;26.83;16.13;;;-1.30;99.10;;;;;;5016297;28;20056;-83
2021/03/02 05:26:05;;;;;;;22.98;14.27;;;-1.40;98.10;;;;;;5033799;28;20512;-82
2021/03/02 05:28:39;;;;;;;33.50;14.55;;;-1.50;97.70;;;;;;4999676;28;20394;-83
2021/03/02 05:31:06;;;;;;;20.55;13.95;;;-1.60;97.30;;;;;;5016438;28;20569;-82
2021/03/02 05:33:33;;;;;;;23.48;16.10;;;-1.80;96.60;;;;;;5015672;28;20052;-81
2021/03/02 05:36:00;;;;;;;29.33;16.40;;;-1.80;97.40;;;;;;4999530;28;20132;-81
2021/03/02 05:38:27;;;;;;;24.25;14.50;;;-1.80;97.90;;;;;;5030370;28;20046;-81
2021/03/02 05:41:11;;;;;;;29.25;16.05;;;-1.80;98.40;;;;;;5011386;28;20050;-83
2021/03/02 05:43:43;;;;;;;26.45;17.20;;;-1.70;98.80;;;;;;5013548;28;20081;-83
2021/03/02 05:46:30;;;;;;;24.20;15.45;;;-1.80;98.50;;;;;;5002472;28;20236;-80
2021/03/02 05:48:58;;;;;;;21.00;14.13;;;-1.80;98.70;;;;;;5032794;28;20045;-80
2021/03/02 05:51:25;;;;;;;30.63;17.10;;;-1.80;99.10;;;;;;5015933;28;20128;-81
2021/03/02 05:53:53;;;;;;;22.10;14.48;;;-1.70;99.20;;;;;;5015739;28;20049;-84
2021/03/02 05:56:20;;;;;;;22.83;16.45;;;-1.70;99.30;;;;;;5014613;28;20528;-84
2021/03/02 05:59:24;;;;;;;24.67;14.15;;;-1.60;99.50;;;;;;5015954;28;20088;-83
2021/03/02 06:01:56;;;;;;;26.35;14.68;;;-1.60;99.60;;;;;;5032912;28;20060;-84
2021/03/02 06:05:56;;;;;;;32.77;14.93;;;-1.50;99.60;;;;;;5021761;28;20037;-84
2021/03/02 06:08:23;;;;;;;20.70;12.73;;;-1.50;99.00;;;;;;5030272;23;20062;-85
2021/03/02 06:11:18;;;;;;;28.52;16.65;;;-1.70;95.40;;;;;;4978920;28;20498;-85
2021/03/02 06:18:16;;;;;;;25.48;15.02;;;-2.00;98.50;;;;;;5387629;24;20058;-86
2021/03/02 06:20:43;;;;;;;23.13;13.38;;;-1.80;99.10;;;;;;4824638;29;20064;-88
2021/03/02 06:23:28;;;;;;;30.40;16.95;;;-1.80;98.10;;;;;;4808800;29;20441;-85
2021/03/02 06:26:57;;;;;;;21.23;11.68;;;-1.80;98.10;;;;;;4797988;29;20058;-82
2021/03/02 06:30:16;;;;;;;22.23;12.70;;;-1.70;99.10;;;;;;4809802;24;20090;-77
2021/03/02 06:42:19;;;;;;;22.42;12.55;;;-1.40;98.60;;;;;;4822081;29;20089;-85
2021/03/02 06:45:05;;;;;;;;;;;-1.20;98.70;;;;;;4816549;29;20129;-84
2021/03/02 06:51:40;;;;;;;20.92;14.23;;;-1.10;99.00;;;;;;4939318;24;20048;-83
2021/03/02 06:54:43;;;;;;;;;;;;;;;;;;;;;
2021/03/02 06:58:25;;;;;;;25.83;15.98;;;-0.80;98.60;;;;;;4726465;30;21476;-83
2021/03/02 07:01:12;;;;;;;26.00;17.10;;;-0.70;98.40;;;;;;4795730;24;20165;-84
2021/03/02 07:13:13;;;;;;;30.10;17.98;;;-0.30;98.70;;;;;;4696747;30;20068;-83
2021/03/02 07:16:02;;;;;;;31.20;20.77;;;0.20;98.70;;;;;;4702492;29;20059;-84
2021/03/02 07:19:05;;;;;;;34.97;18.20;;;0.70;98.50;;;;;;4742610;30;20053;-82
2021/03/02 07:22:09;;;;;;;33.10;19.90;;;1.40;97.10;;;;;;4757315;29;20105;-83
2021/03/02 07:30:25;;;;;;;25.42;14.65;;;1.60;95.10;;;;;;4766290;30;20028;-82
2021/03/02 07:33:37;;;;;;;26.65;15.68;;;1.80;94.40;;;;;;4767762;29;20052;-83
2021/03/02 07:36:10;;;;;;;30.80;18.08;;;2.00;93.90;;;;;;4753164;30;20051;-81
2021/03/02 07:38:39;;;;;;;26.30;16.92;;;2.00;94.20;;;;;;4771835;29;20100;-81
2021/03/02 07:41:09;;;;;;;24.90;17.98;;;2.10;94.10;;;;;;4793448;29;20138;-81
2021/03/02 07:43:41;;;;;;;31.27;18.20;;;2.40;93.30;;;;;;4774352;30;20520;-82
2021/03/02 07:46:37;;;;;;;26.25;17.08;;;2.80;92.70;;;;;;4772930;30;20520;-81
2021/03/02 07:49:24;;;;;;;33.67;19.50;;;3.30;91.00;;;;;;4785952;30;20039;-79
2021/03/02 07:52:00;;;;;;;22.13;14.40;;;3.60;90.20;;;;;;4802651;29;20084;-78
2021/03/02 07:54:28;;;;;;;24.90;14.80;;;3.90;88.50;;;;;;4791102;29;20096;-79
2021/03/02 07:57:16;;;;;;;25.48;17.10;;;4.20;88.10;;;;;;4807783;29;20749;-80
2021/03/02 08:00:04;;;;;;;20.40;13.60;;;4.60;87.80;;;;;;4791542;29;20059;-81
2021/03/02 08:02:31;;;;;;;22.33;16.05;;;4.90;84.40;;;;;;4774590;29;20124;-80
2021/03/02 08:05:26;;;;;;;24.80;13.55;;;5.20;81.40;;;;;;4806408;29;20119;-81
2021/03/02 08:08:26;;;;;;;18.13;12.75;;;4.70;82.70;;;;;;4771538;30;20060;-80
2021/03/02 08:10:54;;;;;;;17.67;12.10;;;4.80;83.40;;;;;;4738221;30;20054;-80
2021/03/02 08:13:41;;;;;;;18.27;13.18;;;5.10;81.60;;;;;;4755828;30;20479;-80
2021/03/02 08:16:11;;;;;;;19.90;13.82;;;5.10;79.70;;;;;;4755896;30;20070;-80
2021/03/02 08:18:41;;;;;;;18.63;13.05;;;5.20;79.70;;;;;;4771122;30;20054;-80
2021/03/02 08:21:14;;;;;;;17.48;12.02;;;5.20;80.50;;;;;;4770462;30;20127;-79
2021/03/02 08:23:47;;;;;;;14.77;11.15;;;5.20;79.20;;;;;;4754288;30;20054;-79
2021/03/02 08:26:30;;;;;;;15.38;12.13;;;5.10;79.00;;;;;;4740775;30;20057;-79
2021/03/02 08:29:16;;;;;;;16.90;11.68;;;5.30;80.30;;;;;;4755118;30;20058;-81
2021/03/02 08:31:49;;;;;;;18.25;11.15;;;5.60;77.60;;;;;;4739283;30;20058;-79
2021/03/02 08:34:19;;;;;;;15.90;11.63;;;5.60;77.70;;;;;;4755388;30;20062;-80
2021/03/02 08:36:52;;;;;;;17.10;10.90;;;5.40;79.00;;;;;;4787287;30;20079;-79
2021/03/02 08:39:21;;;;;;;14.40;9.98;;;5.20;81.00;;;;;;4797302;29;20159;-79
2021/03/02 08:41:50;;;;;;;16.55;10.90;;;5.40;78.60;;;;;;4790050;29;20501;-79
2021/03/02 08:44:22;;;;;;;16.02;11.65;;;5.90;76.20;;;;;;4788218;30;20055;-79
2021/03/02 08:46:56;;;;;;;20.83;11.73;;;6.10;75.70;;;;;;4788575;30;20501;-80
2021/03/02 08:49:25;;;;;;;15.65;10.15;;;6.40;73.20;;;;;;4778948;29;20111;-80
2021/03/02 08:52:06;;;;;;;15.27;11.23;;;6.50;73.00;;;;;;4797577;29;20097;-80
2021/03/02 08:54:50;;;;;;;15.15;10.32;;;6.50;73.10;;;;;;4759803;29;20053;-79
2021/03/02 08:57:19;;;;;;;16.60;12.85;;;6.20;76.80;;;;;;4771485;30;20054;-79
2021/03/02 08:59:48;;;;;;;15.02;10.63;;;6.30;75.20;;;;;;4754357;30;20475;-79
2021/03/02 09:02:16;;;;;;;20.40;12.25;;;6.30;75.20;;;;;;4753895;30;20498;-79
2021/03/02 09:04:57;;;;;;;14.53;10.63;;;6.40;76.70;;;;;;4786106;29;20043;-79
2021/03/02 09:07:24;;;;;;;16.60;12.30;;;6.50;75.10;;;;;;4788843;30;20628;-81
2021/03/02 09:09:51;;;;;;;11.88;9.30;;;6.60;75.90;;;;;;4771123;30;20061;-81
2021/03/02 09:12:18;;;;;;;14.13;10.75;;;7.10;72.10;;;;;;4770488;29;20056;-81
2021/03/02 09:14:48;;;;;;;17.40;11.90;;;7.20;70.10;;;;;;4764044;30;20116;-81
2021/03/02 09:17:16;;;;;;;14.93;11.25;;;7.20;73.40;;;;;;4788038;30;20043;-81
2021/03/02 09:19:43;;;;;;;16.02;9.48;;;7.40;72.30;;;;;;4782447;30;20084;-80
2021/03/02 09:22:13;;;;;;;16.42;10.77;;;7.20;72.00;;;;;;4788932;29;20050;-81
2021/03/02 09:24:45;;;;;;;13.55;10.05;;;7.40;72.70;;;;;;4795349;29;20052;-81
2021/03/02 09:27:15;;;;;;;17.08;10.32;;;7.70;71.20;;;;;;4773104;30;20086;-81
2021/03/02 09:29:44;;;;;;;20.02;9.80;;;7.90;69.70;;;;;;4788124;30;20059;-81
2021/03/02 09:32:14;;;;;;;14.40;8.85;;;8.10;69.80;;;;;;4784999;29;20123;-81
2021/03/02 09:34:44;;;;;;;11.18;8.25;;;8.20;67.00;;;;;;4805953;29;20055;-80
2021/03/02 09:37:17;;;;;;;12.65;11.15;;;8.30;64.20;;;;;;4775181;29;20043;-82
2021/03/02 09:39:57;;;;;;;14.73;8.18;;;8.40;65.60;;;;;;4770935;29;20052;-81
2021/03/02 09:42:33;;;;;;;10.85;7.40;;;8.30;65.20;;;;;;4770241;29;20127;-80
2021/03/02 09:45:03;;;;;;;10.88;7.72;;;8.40;64.20;;;;;;4804861;29;20047;-80
2021/03/02 09:47:35;;;;;;;11.40;7.80;;;8.30;62.30;;;;;;4805819;29;20058;-79
2021/03/02 09:50:08;;;;;;;11.98;7.55;;;8.60;63.20;;;;;;4803565;29;20071;-79
2021/03/02 09:52:36;;;;;;;11.13;7.55;;;8.80;62.70;;;;;;4804944;29;20051;-79
2021/03/02 09:55:07;;;;;;;8.93;6.72;;;8.90;59.20;;;;;;4805801;29;20081;-80
2021/03/02 09:57:50;;;;;;;10.75;6.60;;;9.00;61.10;;;;;;4804756;29;20107;-79
2021/03/02 10:00:23;;;;;;;10.48;6.28;;;9.10;56.60;;;;;;4805374;29;20129;-79
2021/03/02 10:02:55;;;;;;;10.05;6.15;;;9.10;57.40;;;;;;4774836;30;20504;-79
2021/03/02 10:05:31;;;;;;;6.28;5.13;;;9.20;58.50;;;;;;4794366;29;20047;-79
2021/03/02 10:07:58;;;;;;;9.73;5.97;;;9.10;59.20;;;;;;4800613;29;20059;-79
2021/03/02 10:10:39;;;;;;;8.40;7.60;;;9.20;59.70;;;;;;4771950;30;20063;-79
2021/03/02 10:13:07;;;;;;;7.95;5.93;;;9.00;59.00;;;;;;4789061;29;20528;-79
2021/03/02 10:15:34;;;;;;;9.98;7.32;;;9.10;58.40;;;;;;4782691;30;20112;-80
2021/03/02 10:18:21;;;;;;;7.55;5.90;;;9.30;56.90;;;;;;4787064;30;20141;-81
2021/03/02 10:21:08;;;;;;;11.57;5.63;;;9.30;56.90;;;;;;4774948;30;20043;-81
2021/03/02 10:23:49;;;;;;;8.82;6.53;;;9.40;56.60;;;;;;4754752;30;20047;-81
2021/03/02 10:26:29;;;;;;;9.13;7.10;;;9.40;56.80;;;;;;4723724;30;21382;-81
2021/03/02 10:29:07;;;;;;;7.43;6.20;;;9.50;57.90;;;;;;4753219;30;20437;-81
2021/03/02 10:31:36;;;;;;;8.32;6.07;;;9.50;56.80;;;;;;4783026;30;20063;-80
2021/03/02 10:34:09;;;;;;;7.80;5.47;;;9.60;55.50;;;;;;4787064;30;20058;-81
2021/03/02 10:36:40;;;;;;;9.05;7.45;;;9.60;58.60;;;;;;4786882;30;20051;-81
2021/03/02 10:39:15;;;;;;;7.80;6.32;;;9.50;56.30;;;;;;4743854;30;20444;-81
2021/03/02 10:41:44;;;;;;;9.18;7.03;;;9.70;59.20;;;;;;4752816;30;20058;-81
2021/03/02 10:44:12;;;;;;;10.32;6.63;;;9.80;56.00;;;;;;4769244;29;20115;-80
2021/03/02 10:46:39;;;;;;;9.15;7.40;;;9.70;56.20;;;;;;4789394;29;20104;-82
2021/03/02 10:49:07;;;;;;;11.55;8.38;;;9.80;58.10;;;;;;4805217;29;20787;-81
2021/03/02 10:51:34;;;;;;;12.35;6.97;;;9.80;56.30;;;;;;4805345;29;20070;-81
2021/03/02 10:54:01;;;;;;;9.38;6.22;;;9.80;58.00;;;;;;4804992;29;20444;-81
2021/03/02 10:56:28;;;;;;;9.52;8.00;;;10.00;59.90;;;;;;4804536;29;20047;-81
2021/03/02 10:59:39;;;;;;;9.10;8.20;;;10.00;59.70;;;;;;4775266;29;20079;-81
2021/03/02 11:02:07;;;;;;;10.05;7.03;;;10.00;56.20;;;;;;4768831;30;20056;-79
2021/03/02 11:04:34;;;;;;;10.48;7.07;;;10.20;58.60;;;;;;4752977;30;20082;-83
2021/03/02 11:07:00;;;;;;;11.15;7.47;;;10.30;55.40;;;;;;4769562;30;20066;-79
2021/03/02 11:09:27;;;;;;;7.90;6.15;;;10.30;55.30;;;;;;4775690;30;20129;-79
2021/03/02 11:11:54;;;;;;;7.65;5.70;;;10.20;56.50;;;;;;4768418;30;20482;-79
2021/03/02 11:14:21;;;;;;;6.35;4.88;;;10.10;59.60;;;;;;4756978;30;20441;-81
2021/03/02 11:16:48;;;;;;;8.45;6.65;;;10.30;56.70;;;;;;4772725;30;20139;-81
2021/03/02 11:19:15;;;;;;;9.20;7.32;;;10.50;57.10;;;;;;4790865;30;20055;-80
2021/03/02 11:21:42;;;;;;;8.93;7.18;;;10.60;54.00;;;;;;4790046;30;20083;-80
2021/03/02 11:24:09;;;;;;;7.03;6.28;;;10.60;55.00;;;;;;4790116;30;20058;-80
2021/03/02 11:26:36;;;;;;;10.95;7.72;;;10.60;55.30;;;;;;4788770;29;20134;-80
2021/03/02 11:29:03;;;;;;;15.23;7.50;;;10.70;54.70;;;;;;4800416;29;20081;-79
2021/03/02 11:31:33;;;;;;;8.93;7.50;;;10.80;58.00;;;;;;4790234;29;20055;-79
2021/03/02 11:34:00;;;;;;;11.30;7.18;;;11.00;54.50;;;;;;4791663;29;20071;-78
2021/03/02 11:36:27;;;;;;;7.38;6.57;;;11.20;55.40;;;;;;4807187;29;20039;-78
2021/03/02 11:38:56;;;;;;;10.70;6.88;;;11.20;56.00;;;;;;4796528;29;20086;-79
2021/03/02 11:41:27;;;;;;;8.98;6.90;;;11.30;57.60;;;;;;4768466;30;20059;-80
2021/03/02 11:43:55;;;;;;;12.95;9.23;;;11.20;53.90;;;;;;4806418;29;20135;-80
2021/03/02 11:46:22;;;;;;;9.35;7.78;;;11.30;58.30;;;;;;4791570;29;20417;-78
2021/03/02 11:48:49;;;;;;;9.50;7.95;;;11.30;58.90;;;;;;4800371;29;20500;-79
2021/03/02 11:51:24;;;;;;;10.35;8.60;;;11.40;53.20;;;;;;4794687;29;20050;-79
2021/03/02 11:53:50;;;;;;;10.57;6.13;;;11.30;53.00;;;;;;4774827;29;20058;-79
2021/03/02 11:56:17;;;;;;;10.02;7.28;;;11.30;54.40;;;;;;4771510;30;20550;-79
2021/03/02 11:58:44;;;;;;;8.35;7.40;;;11.60;55.10;;;;;;4772799;30;20058;-78
2021/03/02 12:01:11;;;;;;;12.18;8.98;;;11.60;53.80;;;;;;4765858;30;20062;-78
2021/03/02 12:03:39;;;;;;;8.18;7.22;;;11.50;53.70;;;;;;4799269;29;20067;-77
2021/03/02 12:06:05;;;;;;;9.77;8.05;;;11.70;55.00;;;;;;4806376;29;20130;-80
2021/03/02 12:08:34;;;;;;;9.90;7.80;;;11.80;54.30;;;;;;4785827;29;20040;-81
2021/03/02 12:11:01;;;;;;;9.65;8.27;;;11.90;56.90;;;;;;4771430;30;20187;-78
2021/03/02 12:13:29;;;;;;;9.07;7.38;;;12.00;52.10;;;;;;4771220;30;20134;-78
2021/03/02 12:15:57;;;;;;;9.98;6.65;;;12.00;53.50;;;;;;4771744;30;20060;-78
2021/03/02 12:18:24;;;;;;;12.93;8.38;;;11.90;51.00;;;;;;4772520;30;20134;-78
2021/03/02 12:20:55;;;;;;;8.57;6.18;;;12.00;51.60;;;;;;4771419;29;20055;-79
2021/03/02 12:23:25;;;;;;;8.43;7.47;;;12.10;51.40;;;;;;4772198;30;20521;-81
2021/03/02 12:25:52;;;;;;;15.90;8.88;;;12.00;51.10;;;;;;4770533;30;20060;-79
2021/03/02 12:28:20;;;;;;;9.43;8.35;;;12.00;51.50;;;;;;4771760;30;20043;-78
2021/03/02 12:30:47;;;;;;;9.15;7.35;;;12.00;52.20;;;;;;4771820;30;20079;-79
2021/03/02 12:33:15;;;;;;;8.07;6.63;;;12.10;54.00;;;;;;4754991;30;20060;-78
2021/03/02 12:35:42;;;;;;;9.80;7.38;;;12.30;55.10;;;;;;4753512;30;20056;-77
2021/03/02 12:38:09;;;;;;;13.38;7.18;;;12.70;54.20;;;;;;4743579;30;20059;-79
2021/03/02 12:40:36;;;;;;;9.38;7.10;;;12.90;52.10;;;;;;4771146;30;20071;-79
2021/03/02 12:43:05;;;;;;;11.35;7.70;;;12.90;50.90;;;;;;4769606;30;20058;-80
2021/03/02 12:45:32;;;;;;;8.25;6.72;;;12.90;51.20;;;;;;4771675;30;20048;-79
2021/03/02 12:47:59;;;;;;;8.60;6.68;;;12.80;49.80;;;;;;4771141;29;20060;-80
2021/03/02 12:50:26;;;;;;;10.30;7.85;;;12.60;52.80;;;;;;4742959;30;20744;-78
2021/03/02 12:52:53;;;;;;;7.88;6.75;;;12.80;54.30;;;;;;4765887;30;20048;-78
2021/03/02 12:55:20;;;;;;;8.88;6.88;;;13.10;50.80;;;;;;4762254;30;20058;-79
2021/03/02 12:57:48;;;;;;;9.07;7.35;;;12.90;51.50;;;;;;4753685;30;20090;-78
2021/03/02 13:00:20;;;;;;;9.23;7.55;;;12.80;51.20;;;;;;4780716;30;20402;-78
2021/03/02 13:02:48;;;;;;;11.20;7.28;;;13.00;52.10;;;;;;4789059;30;20063;-78
2021/03/02 13:05:17;;;;;;;10.32;7.22;;;13.20;51.00;;;;;;4770832;30;20471;-78
2021/03/02 13:07:45;;;;;;;17.80;9.93;;;13.40;49.80;;;;;;4770923;30;20586;-78
2021/03/02 13:10:12;;;;;;;9.07;7.13;;;13.20;50.20;;;;;;4771140;30;20048;-79
2021/03/02 13:12:39;;;;;;;10.38;6.65;;;13.40;50.50;;;;;;4770733;30;20498;-79
2021/03/02 13:15:06;;;;;;;8.25;6.40;;;13.60;51.50;;;;;;4771492;30;20062;-80
2021/03/02 13:17:33;;;;;;;9.10;6.43;;;13.80;50.60;;;;;;4770645;30;20569;-78
2021/03/02 13:20:02;;;;;;;8.88;7.85;;;13.80;50.00;;;;;;4771012;30;20577;-78
2021/03/02 13:22:29;;;;;;;10.80;7.75;;;13.70;51.70;;;;;;4771532;30;20054;-78
2021/03/02 13:24:58;;;;;;;9.43;7.57;;;13.80;53.60;;;;;;4770867;30;20047;-78
2021/03/02 13:27:25;;;;;;;10.10;7.07;;;13.80;48.30;;;;;;4771178;30;20055;-78
2021/03/02 13:30:03;;;;;;;9.93;6.13;;;13.70;49.10;;;;;;4770050;30;20664;-79
2021/03/02 13:32:37;;;;;;;10.32;6.50;;;13.70;49.00;;;;;;4775143;30;20059;-77
2021/03/02 13:35:07;;;;;;;11.85;7.60;;;13.70;48.80;;;;;;4787850;30;20062;-77
2021/03/02 13:37:36;;;;;;;9.32;6.07;;;13.80;50.20;;;;;;4785909;29;20537;-77
2021/03/02 13:40:15;;;;;;;8.70;6.85;;;13.90;48.60;;;;;;4769671;30;20063;-77